createdAt,value
2022-12-24T00:00:12.412Z,5.88
2022-12-24T00:02:39.542Z,3.60
2022-12-24T00:05:06.821Z,4.45
2022-12-24T00:07:33.638Z,4.97
2022-12-24T00:10:00.635Z,4.10
2022-12-24T00:12:27.459Z,3.10
2022-12-24T00:14:54.266Z,4.43
2022-12-24T00:17:21.436Z,4.28
2022-12-24T00:19:48.223Z,3.38
2022-12-24T00:22:15.144Z,4.13
2022-12-24T00:24:41.967Z,3.38
2022-12-24T00:27:08.825Z,3.88
2022-12-24T00:29:35.656Z,4.82
2022-12-24T00:32:02.478Z,3.75
2022-12-24T00:34:29.244Z,4.03
2022-12-24T00:36:56.168Z,3.55
2022-12-24T00:39:22.985Z,3.47
2022-12-24T00:41:49.772Z,5.85
2022-12-24T00:44:16.721Z,3.28
2022-12-24T00:46:43.640Z,4.32
2022-12-24T00:49:11.655Z,3.40
2022-12-24T00:51:38.835Z,8.30
2022-12-24T00:54:06.518Z,5.88
2022-12-24T00:56:34.037Z,5.07
2022-12-24T00:59:01.299Z,5.40
2022-12-24T01:01:28.567Z,6.40
2022-12-24T01:04:14.506Z,5.32
2022-12-24T01:06:41.302Z,4.28
2022-12-24T01:09:08.185Z,3.85
2022-12-24T01:11:35.103Z,4.10
2022-12-24T01:14:01.965Z,3.97
2022-12-24T01:16:28.822Z,5.13
2022-12-24T01:18:56.461Z,5.43
2022-12-24T01:21:23.286Z,5.05
2022-12-24T01:23:50.135Z,3.33
2022-12-24T01:26:17.145Z,4.95
2022-12-24T01:28:44.019Z,4.35
2022-12-24T01:31:16.460Z,4.40
2022-12-24T01:33:43.825Z,4.53
2022-12-24T01:36:11.878Z,4.50
2022-12-24T01:38:38.738Z,4.32
2022-12-24T01:41:24.051Z,5.25
2022-12-24T01:43:50.897Z,3.50
2022-12-24T01:46:17.687Z,4.55
2022-12-24T01:48:55.300Z,3.75
2022-12-24T01:51:45.049Z,3.78
2022-12-24T01:54:24.047Z,3.25
2022-12-24T01:57:15.401Z,4.03
2022-12-24T01:59:46.313Z,3.88
2022-12-24T02:02:14.328Z,6.63
2022-12-24T02:05:03.514Z,4.05
2022-12-24T02:07:30.497Z,4.25
2022-12-24T02:09:59.899Z,4.32
2022-12-24T02:12:28.817Z,4.38
2022-12-24T02:14:55.966Z,4.35
2022-12-24T02:17:35.632Z,5.20
2022-12-24T02:20:27.079Z,3.50
2022-12-24T02:23:03.131Z,3.17
2022-12-24T02:25:29.879Z,3.53
2022-12-24T02:28:08.142Z,3.22
2022-12-24T02:31:10.565Z,3.65
2022-12-24T02:33:51.123Z,2.90
2022-12-24T02:36:29.258Z,4.03
2022-12-24T02:39:12.015Z,2.60
2022-12-24T02:44:34.320Z,3.15
2022-12-24T02:47:03.038Z,3.97
2022-12-24T02:49:29.867Z,3.90
2022-12-24T02:51:56.647Z,4.72
2022-12-24T02:54:23.647Z,7.47
2022-12-24T02:57:17.156Z,3.40
2022-12-24T03:00:08.355Z,3.13
2022-12-24T03:02:41.008Z,4.00
2022-12-24T03:05:10.732Z,2.92
2022-12-24T03:08:02.537Z,3.13
2022-12-24T03:10:41.339Z,3.13
2022-12-24T03:13:14.175Z,3.22
2022-12-24T03:15:42.493Z,2.35
2022-12-24T03:18:12.204Z,4.28
2022-12-24T03:20:42.328Z,2.83
2022-12-24T03:23:09.277Z,3.17
2022-12-24T03:25:41.058Z,2.78
2022-12-24T03:28:10.517Z,2.95
2022-12-24T03:30:41.093Z,2.50
2022-12-24T03:33:08.337Z,2.45
2022-12-24T03:35:35.161Z,2.30
2022-12-24T03:38:01.952Z,2.35
2022-12-24T03:40:29.046Z,4.53
2022-12-24T03:42:55.820Z,3.03
2022-12-24T03:45:22.878Z,2.85
2022-12-24T03:47:49.863Z,2.28
2022-12-24T03:50:16.683Z,4.63
2022-12-24T03:52:44.096Z,3.08
2022-12-24T03:55:10.961Z,2.17
2022-12-24T03:57:37.813Z,2.47
2022-12-24T04:00:06.195Z,5.10
2022-12-24T04:02:33.638Z,2.40
2022-12-24T04:05:00.464Z,2.45
2022-12-24T04:07:27.270Z,3.05
2022-12-24T04:09:54.051Z,3.15
2022-12-24T04:12:20.821Z,2.40
2022-12-24T04:14:47.636Z,5.07
2022-12-24T04:17:14.403Z,2.90
2022-12-24T04:19:41.272Z,2.53
2022-12-24T04:22:08.046Z,3.83
2022-12-24T04:24:34.815Z,3.08
2022-12-24T04:27:01.550Z,4.85
2022-12-24T04:29:28.327Z,3.88
2022-12-24T04:31:55.147Z,3.38
2022-12-24T04:34:21.948Z,3.30
2022-12-24T04:36:48.720Z,3.28
2022-12-24T04:39:15.472Z,3.30
2022-12-24T04:41:42.308Z,3.58
2022-12-24T04:44:10.106Z,3.33
2022-12-24T04:46:37.236Z,8.65
2022-12-24T04:49:04.127Z,3.00
2022-12-24T04:51:31.000Z,3.00
2022-12-24T04:53:58.017Z,3.47
2022-12-24T04:56:27.471Z,3.50
2022-12-24T04:58:54.383Z,3.80
2022-12-24T05:01:24.286Z,3.15
2022-12-24T05:03:51.862Z,3.15
2022-12-24T05:06:23.236Z,3.20
2022-12-24T05:08:50.199Z,3.30
2022-12-24T05:11:17.341Z,4.30
2022-12-24T05:13:47.407Z,4.43
2022-12-24T05:16:15.885Z,5.43
2022-12-24T05:18:42.946Z,3.05
2022-12-24T05:21:11.561Z,4.75
2022-12-24T05:23:57.298Z,3.40
2022-12-24T05:26:50.153Z,4.10
2022-12-24T05:29:17.513Z,4.65
2022-12-24T05:31:45.415Z,4.85
2022-12-24T05:34:14.329Z,6.90
2022-12-24T05:36:41.548Z,5.80
2022-12-24T05:39:15.184Z,4.50
2022-12-24T05:41:43.354Z,4.38
2022-12-24T05:44:10.168Z,6.47
2022-12-24T05:46:37.058Z,5.97
2022-12-24T05:49:03.983Z,5.03
2022-12-24T05:51:30.770Z,4.78
2022-12-24T05:53:57.539Z,4.63
2022-12-24T05:56:25.004Z,4.70
2022-12-24T05:58:53.713Z,5.07
2022-12-24T06:01:22.167Z,6.15
2022-12-24T06:03:51.940Z,5.70
2022-12-24T06:06:22.270Z,7.97
2022-12-24T06:08:50.774Z,7.22
2022-12-24T06:11:21.250Z,5.85
2022-12-24T06:13:48.075Z,8.13
2022-12-24T06:16:18.288Z,7.68
2022-12-24T06:18:45.228Z,8.02
2022-12-24T06:21:12.642Z,14.93
2022-12-24T06:23:42.339Z,9.32
2022-12-24T06:26:11.626Z,16.63
2022-12-24T06:28:38.968Z,12.02
2022-12-24T06:31:07.061Z,12.73
2022-12-24T06:33:35.036Z,21.98
2022-12-24T06:36:02.334Z,14.60
2022-12-24T06:38:32.174Z,19.33
2022-12-24T06:40:59.140Z,18.00
2022-12-24T06:43:25.965Z,22.13
2022-12-24T06:45:53.516Z,16.65
2022-12-24T06:48:20.388Z,25.90
2022-12-24T06:50:47.434Z,22.23
2022-12-24T06:53:14.209Z,20.48
2022-12-24T06:55:41.088Z,21.33
2022-12-24T06:58:07.860Z,21.10
2022-12-24T07:00:34.779Z,20.48
2022-12-24T07:03:02.552Z,22.42
2022-12-24T07:05:30.159Z,18.02
2022-12-24T07:07:57.338Z,21.58
2022-12-24T07:10:25.156Z,28.98
2022-12-24T07:12:51.957Z,20.23
2022-12-24T07:15:18.853Z,30.00
2022-12-24T07:17:45.841Z,31.90
2022-12-24T07:20:16.915Z,21.30
2022-12-24T07:22:43.946Z,24.15
2022-12-24T07:25:11.869Z,15.75
2022-12-24T07:27:39.431Z,25.52
2022-12-24T07:30:07.413Z,25.38
2022-12-24T07:32:34.647Z,22.02
2022-12-24T07:35:01.558Z,31.63
2022-12-24T07:37:28.320Z,25.20
2022-12-24T07:39:55.135Z,24.88
2022-12-24T07:42:22.005Z,27.00
2022-12-24T07:44:48.755Z,38.30
2022-12-24T07:47:16.700Z,24.85
2022-12-24T07:49:43.463Z,32.65
2022-12-24T07:52:10.282Z,29.40
2022-12-24T07:54:37.030Z,25.52
2022-12-24T07:57:03.865Z,26.17
2022-12-24T07:59:30.751Z,31.85
2022-12-24T08:01:57.739Z,28.30
2022-12-24T08:04:24.855Z,29.83
2022-12-24T08:06:51.736Z,25.67
2022-12-24T08:09:18.609Z,42.58
2022-12-24T08:11:51.638Z,27.95
2022-12-24T08:14:19.250Z,25.83
2022-12-24T08:16:46.068Z,32.38
2022-12-24T08:19:12.889Z,29.67
2022-12-24T08:21:39.690Z,29.58
2022-12-24T08:24:06.711Z,35.90
2022-12-24T08:26:33.560Z,31.35
2022-12-24T08:29:00.376Z,28.08
2022-12-24T08:31:27.313Z,31.25
2022-12-24T08:33:54.150Z,30.08
2022-12-24T08:36:20.898Z,24.40
2022-12-24T08:38:47.701Z,32.35
2022-12-24T08:41:14.449Z,26.92
2022-12-24T08:43:41.248Z,33.90
2022-12-24T08:46:08.260Z,33.13
2022-12-24T08:48:36.241Z,26.27
2022-12-24T08:51:08.331Z,33.67
2022-12-24T08:53:35.159Z,33.22
2022-12-24T08:56:03.843Z,34.63
2022-12-24T08:58:32.680Z,32.45
2022-12-24T09:00:59.962Z,21.40
2022-12-24T09:03:28.189Z,34.47
2022-12-24T09:05:55.592Z,31.30
2022-12-24T09:08:22.562Z,30.23
2022-12-24T09:10:49.354Z,27.48
2022-12-24T09:13:16.120Z,22.67
2022-12-24T09:15:42.927Z,27.48
2022-12-24T09:18:10.604Z,25.92
2022-12-24T09:20:39.516Z,23.48
2022-12-24T09:23:09.503Z,22.20
2022-12-24T09:25:40.663Z,23.58
2022-12-24T09:28:07.948Z,34.20
2022-12-24T09:30:34.831Z,32.67
2022-12-24T09:33:01.707Z,29.77
2022-12-24T09:35:28.611Z,22.45
2022-12-24T09:38:04.471Z,24.92
2022-12-24T09:40:40.327Z,24.13
2022-12-24T09:43:24.043Z,24.98
2022-12-24T09:46:27.404Z,25.23
2022-12-24T09:49:04.196Z,25.58
2022-12-24T09:51:45.632Z,21.73
2022-12-24T09:54:32.863Z,22.60
2022-12-24T09:57:05.848Z,24.23
2022-12-24T09:59:46.527Z,39.38
2022-12-24T10:02:19.266Z,27.45
2022-12-24T10:04:47.763Z,30.65
2022-12-24T10:07:46.778Z,30.15
2022-12-24T10:10:37.399Z,26.00
2022-12-24T10:13:27.485Z,24.25
2022-12-24T10:16:06.379Z,27.58
2022-12-24T10:18:49.790Z,35.83
2022-12-24T10:21:31.650Z,28.98
2022-12-24T10:24:22.361Z,26.77
2022-12-24T10:27:00.870Z,27.02
2022-12-24T10:29:55.128Z,30.02
2022-12-24T10:32:26.359Z,30.38
2022-12-24T10:35:08.791Z,32.35
2022-12-24T10:37:35.709Z,36.88
2022-12-24T10:40:03.548Z,25.73
2022-12-24T10:42:51.616Z,22.33
2022-12-24T10:45:22.849Z,26.73
2022-12-24T10:47:54.350Z,27.30
2022-12-24T10:50:39.670Z,25.38
2022-12-24T10:53:23.456Z,36.38
2022-12-24T10:55:50.324Z,27.58
2022-12-24T10:58:19.896Z,30.10
2022-12-24T11:00:52.038Z,34.13
2022-12-24T11:03:18.808Z,27.70
2022-12-24T11:05:45.775Z,27.13
2022-12-24T11:08:12.525Z,27.30
2022-12-24T11:10:53.934Z,24.40
2022-12-24T11:13:38.787Z,26.55
2022-12-24T11:16:30.514Z,30.42
2022-12-24T11:18:59.286Z,28.65
2022-12-24T11:21:29.455Z,26.50
2022-12-24T11:23:59.382Z,36.90
2022-12-24T11:26:28.986Z,31.90
2022-12-24T11:29:14.656Z,31.55
2022-12-24T11:31:45.448Z,26.58
2022-12-24T11:34:29.335Z,29.45
2022-12-24T11:37:21.356Z,33.28
2022-12-24T11:39:52.678Z,36.60
2022-12-24T11:42:46.283Z,31.17
2022-12-24T11:45:22.386Z,30.52
2022-12-24T11:47:49.406Z,27.92
2022-12-24T11:50:27.896Z,32.22
2022-12-24T11:53:00.525Z,29.55
2022-12-24T11:55:44.950Z,29.20
2022-12-24T11:58:32.996Z,25.08
2022-12-24T12:01:19.379Z,28.48
2022-12-24T12:03:49.797Z,30.00
2022-12-24T12:06:39.952Z,24.35
2022-12-24T12:09:12.975Z,30.98
2022-12-24T12:11:42.383Z,28.40
2022-12-24T12:14:23.994Z,31.20
2022-12-24T12:17:06.110Z,29.88
2022-12-24T12:19:46.330Z,36.35
2022-12-24T12:22:30.260Z,24.52
2022-12-24T12:24:59.184Z,29.70
2022-12-24T12:27:44.290Z,33.53
2022-12-24T12:30:20.397Z,34.13
2022-12-24T12:33:14.969Z,22.00
2022-12-24T12:35:43.857Z,25.90
2022-12-24T12:38:24.051Z,27.42
2022-12-24T12:40:53.780Z,32.90
2022-12-24T12:43:38.234Z,36.20
2022-12-24T12:46:26.817Z,25.63
2022-12-24T12:49:08.801Z,26.73
2022-12-24T12:51:41.788Z,26.80
2022-12-24T12:54:08.559Z,28.33
2022-12-24T12:56:37.264Z,22.08
2022-12-24T12:59:08.753Z,28.02
2022-12-24T13:02:03.675Z,20.60
2022-12-24T13:04:30.691Z,27.40
2022-12-24T13:07:23.916Z,28.10
2022-12-24T13:09:53.536Z,24.77
2022-12-24T13:12:36.107Z,25.30
2022-12-24T13:15:12.072Z,23.65
2022-12-24T13:17:50.832Z,20.77
2022-12-24T13:20:31.167Z,24.80
2022-12-24T13:23:04.229Z,24.15
2022-12-24T13:25:38.683Z,20.70
2022-12-24T13:28:30.602Z,17.92
2022-12-24T13:31:21.689Z,22.90
2022-12-24T13:33:51.597Z,22.55
2022-12-24T13:36:19.850Z,23.20
2022-12-24T13:38:53.905Z,26.25
2022-12-24T13:41:40.085Z,23.67
2022-12-24T13:44:07.709Z,28.00
2022-12-24T13:47:05.225Z,24.90
2022-12-24T13:49:44.524Z,20.50
2022-12-24T13:52:11.288Z,21.20
2022-12-24T13:54:41.231Z,24.27
2022-12-24T13:57:40.391Z,20.75
2022-12-24T14:00:22.880Z,17.20
2022-12-24T14:02:57.564Z,26.23
2022-12-24T14:05:33.994Z,19.10
2022-12-24T14:08:03.893Z,16.80
2022-12-24T14:10:40.749Z,14.18
2022-12-24T14:13:27.511Z,19.55
2022-12-24T14:15:57.371Z,17.20
2022-12-24T14:18:25.283Z,20.50
2022-12-24T14:20:57.750Z,21.10
2022-12-24T14:25:58.404Z,22.40
2022-12-24T14:28:35.314Z,16.35
2022-12-24T14:31:04.276Z,13.60
2022-12-24T14:33:35.453Z,16.38
2022-12-24T14:36:02.945Z,21.35
2022-12-24T14:38:30.516Z,17.58
2022-12-24T14:41:06.851Z,18.00
2022-12-24T14:43:54.772Z,17.25
2022-12-24T14:46:24.340Z,12.70
2022-12-24T14:49:37.669Z,12.30
2022-12-24T14:53:04.187Z,17.30
2022-12-24T14:55:41.013Z,10.50
2022-12-24T14:58:36.705Z,12.65
2022-12-24T15:01:18.369Z,17.23
2022-12-24T15:03:45.555Z,11.47
2022-12-24T15:06:14.583Z,11.20
2022-12-24T15:08:48.455Z,10.80
2022-12-24T15:11:20.218Z,13.73
2022-12-24T15:13:50.652Z,13.32
2022-12-24T15:16:31.249Z,11.48
2022-12-24T15:19:05.987Z,10.18
2022-12-24T15:21:42.594Z,14.18
2022-12-24T15:24:36.810Z,16.02
2022-12-24T15:27:20.657Z,9.70
2022-12-24T15:29:50.466Z,16.23
2022-12-24T15:32:19.408Z,14.25
2022-12-24T15:35:04.713Z,14.32
2022-12-24T15:37:42.504Z,14.98
2022-12-24T15:40:10.922Z,20.20
2022-12-24T15:42:42.468Z,17.25
2022-12-24T15:45:40.494Z,14.27
2022-12-24T15:48:10.703Z,9.40
2022-12-24T15:50:44.339Z,16.77
2022-12-24T15:53:24.864Z,13.45
2022-12-24T15:56:26.987Z,15.40
2022-12-24T15:59:10.968Z,23.20
2022-12-24T16:01:38.133Z,16.80
2022-12-24T16:04:14.785Z,20.08
2022-12-24T16:07:03.422Z,10.50
2022-12-24T16:09:31.565Z,15.00
2022-12-24T16:12:03.220Z,16.98
2022-12-24T16:14:33.241Z,17.00
2022-12-24T16:17:00.195Z,15.73
2022-12-24T16:19:37.748Z,20.08
2022-12-24T16:22:24.844Z,16.50
2022-12-24T16:24:55.778Z,16.08
2022-12-24T16:27:22.677Z,20.13
2022-12-24T16:29:50.344Z,14.20
2022-12-24T16:32:32.143Z,18.55
2022-12-24T16:34:59.814Z,20.07
2022-12-24T16:37:26.631Z,18.23
2022-12-24T16:39:53.434Z,18.25
2022-12-24T16:42:38.753Z,17.27
2022-12-24T16:45:06.361Z,16.30
2022-12-24T16:47:42.001Z,10.40
2022-12-24T16:50:16.614Z,18.48
2022-12-24T16:52:43.671Z,21.20
2022-12-24T16:55:14.157Z,23.65
2022-12-24T16:57:42.243Z,21.38
2022-12-24T17:00:18.462Z,17.00
2022-12-24T17:02:45.982Z,20.00
2022-12-24T17:05:12.935Z,14.35
2022-12-24T17:07:43.631Z,9.95
2022-12-24T17:10:12.466Z,24.83
2022-12-24T17:12:39.293Z,21.13
2022-12-24T17:15:06.471Z,17.35
2022-12-24T17:17:33.386Z,18.73
2022-12-24T17:20:00.417Z,18.00
2022-12-24T17:22:27.717Z,18.73
2022-12-24T17:24:55.422Z,18.17
2022-12-24T17:27:23.227Z,27.20
2022-12-24T17:29:50.466Z,24.27
2022-12-24T17:32:17.316Z,24.35
2022-12-24T17:34:44.215Z,23.02
2022-12-24T17:37:11.378Z,20.20
2022-12-24T17:39:38.366Z,17.33
2022-12-24T17:42:05.360Z,28.65
2022-12-24T17:44:32.226Z,19.50
2022-12-24T17:46:59.771Z,26.80
2022-12-24T17:49:26.795Z,27.65
2022-12-24T17:51:53.787Z,29.42
2022-12-24T17:54:20.741Z,23.00
2022-12-24T17:56:47.614Z,29.90
2022-12-24T17:59:14.718Z,28.75
2022-12-24T18:01:41.935Z,26.92
2022-12-24T18:04:09.066Z,25.38
2022-12-24T18:06:35.889Z,27.17
2022-12-24T18:09:02.932Z,28.33
2022-12-24T18:11:33.981Z,27.35
2022-12-24T18:14:02.516Z,24.63
2022-12-24T18:16:38.365Z,22.15
2022-12-24T18:19:08.312Z,23.83
2022-12-24T18:21:35.317Z,23.92
2022-12-24T18:24:02.311Z,26.75
2022-12-24T18:26:31.046Z,28.40
2022-12-24T18:29:00.072Z,27.52
2022-12-24T18:31:29.702Z,26.30
2022-12-24T18:33:56.853Z,29.00
2022-12-24T18:36:23.868Z,21.95
2022-12-24T18:38:51.178Z,30.48
2022-12-24T18:41:27.911Z,25.15
2022-12-24T18:43:56.090Z,32.72
2022-12-24T18:46:25.457Z,26.08
2022-12-24T18:48:53.108Z,27.05
2022-12-24T18:51:24.664Z,29.30
2022-12-24T18:53:51.884Z,29.98
2022-12-24T18:56:26.044Z,30.42
2022-12-24T18:58:54.964Z,30.88
2022-12-24T19:01:28.008Z,23.92
2022-12-24T19:03:54.999Z,23.10
2022-12-24T19:06:23.148Z,23.50
2022-12-24T19:08:59.740Z,19.52
2022-12-24T19:11:32.396Z,33.15
2022-12-24T19:13:59.688Z,28.23
2022-12-24T19:16:28.283Z,32.72
2022-12-24T19:18:55.571Z,18.42
2022-12-24T19:21:22.434Z,30.38
2022-12-24T19:23:49.507Z,31.45
2022-12-24T19:26:18.222Z,24.30
2022-12-24T19:28:45.955Z,27.70
2022-12-24T19:31:15.493Z,25.90
2022-12-24T19:33:49.901Z,33.53
2022-12-24T19:36:23.040Z,25.40
2022-12-24T19:38:50.269Z,24.40
2022-12-24T19:41:20.593Z,23.85
2022-12-24T19:43:49.779Z,22.80
2022-12-24T19:46:18.990Z,20.27
2022-12-24T19:48:55.975Z,16.83
2022-12-24T19:51:23.425Z,17.92
2022-12-24T19:53:50.531Z,19.05
2022-12-24T19:56:19.658Z,22.08
2022-12-24T19:58:47.490Z,16.00
2022-12-24T20:01:17.895Z,23.65
2022-12-24T20:03:46.314Z,15.38
2022-12-24T20:06:14.137Z,12.15
2022-12-24T20:08:41.250Z,12.90
2022-12-24T20:11:11.054Z,13.57
2022-12-24T20:13:42.024Z,26.25
2022-12-24T20:16:10.535Z,25.88
2022-12-24T20:18:37.725Z,26.10
2022-12-24T20:21:13.232Z,24.25
2022-12-24T20:23:40.911Z,23.52
2022-12-24T20:26:11.889Z,21.80
2022-12-24T20:28:39.840Z,27.70
2022-12-24T20:31:11.669Z,23.60
2022-12-24T20:33:38.983Z,24.00
2022-12-24T20:36:06.688Z,25.63
2022-12-24T20:38:33.578Z,24.30
2022-12-24T20:41:00.577Z,24.75
2022-12-24T20:43:34.068Z,18.55
2022-12-24T20:46:03.199Z,28.10
2022-12-24T20:48:30.877Z,24.50
2022-12-24T20:50:57.955Z,23.25
2022-12-24T20:53:25.126Z,27.55
2022-12-24T20:55:53.283Z,20.95
2022-12-24T20:58:20.788Z,37.00
2022-12-24T21:00:48.546Z,21.85
2022-12-24T21:03:16.534Z,24.83
2022-12-24T21:05:44.636Z,24.20
2022-12-24T21:08:13.343Z,28.58
2022-12-24T21:10:40.482Z,27.02
2022-12-24T21:13:07.872Z,25.13
2022-12-24T21:15:37.307Z,24.15
2022-12-24T21:18:10.629Z,20.42
2022-12-24T21:20:41.933Z,25.48
2022-12-24T21:23:09.779Z,32.30
2022-12-24T21:25:37.693Z,28.98
2022-12-24T21:28:04.869Z,33.28
2022-12-24T21:30:32.418Z,34.83
2022-12-24T21:32:59.336Z,26.10
2022-12-24T21:35:26.191Z,27.98
2022-12-24T21:37:53.632Z,23.35
2022-12-24T21:40:20.499Z,29.27
2022-12-24T21:42:47.406Z,24.08
2022-12-24T21:45:14.235Z,28.88
2022-12-24T21:47:44.595Z,23.98
2022-12-24T21:50:32.336Z,23.88
2022-12-24T21:53:18.512Z,27.67
2022-12-24T21:55:45.574Z,25.27
2022-12-24T21:58:12.442Z,17.05
2022-12-24T22:00:39.298Z,22.38
2022-12-24T22:03:06.404Z,13.30
2022-12-24T22:05:34.594Z,18.08
2022-12-24T22:08:20.590Z,14.35
2022-12-24T22:11:05.799Z,15.65
2022-12-24T22:13:32.693Z,14.88
2022-12-24T22:15:59.556Z,11.77
2022-12-24T22:18:27.218Z,8.68
2022-12-24T22:20:55.470Z,17.58
2022-12-24T22:23:22.296Z,413.25
2022-12-24T22:25:49.253Z,424.73
2022-12-24T22:28:16.050Z,40.45
2022-12-24T22:30:43.473Z,64.30
2022-12-24T22:33:10.922Z,53.70
2022-12-24T22:35:40.508Z,34.83
2022-12-24T22:38:09.396Z,62.90
2022-12-24T22:40:38.953Z,7.13
2022-12-24T22:43:05.822Z,14.32
2022-12-24T22:45:32.645Z,35.30
2022-12-24T22:47:59.516Z,12.52
2022-12-24T22:50:26.341Z,90.93
2022-12-24T22:52:54.007Z,68.88
2022-12-24T22:55:21.477Z,36.80
2022-12-24T22:57:48.580Z,4.25
2022-12-24T23:00:36.794Z,50.22
2022-12-24T23:03:04.910Z,65.43
2022-12-24T23:05:32.087Z,39.90
2022-12-24T23:07:59.182Z,17.40
2022-12-24T23:10:26.022Z,50.60
2022-12-24T23:13:15.034Z,10.55
2022-12-24T23:15:42.232Z,31.98
2022-12-24T23:18:09.807Z,77.47
2022-12-24T23:20:47.924Z,41.03
2022-12-24T23:23:15.532Z,14.25
2022-12-24T23:25:42.597Z,6.40
2022-12-24T23:28:09.536Z,17.55
2022-12-24T23:30:36.960Z,11.50
2022-12-24T23:33:04.159Z,11.98
2022-12-24T23:35:31.050Z,17.63
2022-12-24T23:37:57.898Z,8.43
2022-12-24T23:40:24.937Z,11.75
2022-12-24T23:42:51.809Z,19.13
2022-12-24T23:45:18.654Z,230.57
2022-12-24T23:47:45.459Z,167.95
2022-12-24T23:50:12.256Z,173.32
2022-12-24T23:52:39.101Z,101.65
2022-12-24T23:55:06.477Z,125.25
2022-12-24T23:57:33.339Z,66.68
